sensor_id;sensor_type;location;lat;lon;timestamp;temperature;humidity
18729;DHT22;9493;51.884;5.188;2022-07-29T00:00:47;17.10;99.90
18729;DHT22;9493;51.884;5.188;2022-07-29T00:03:14;17.10;99.90
18729;DHT22;9493;51.884;5.188;2022-07-29T00:05:41;17.10;99.90
18729;DHT22;9493;51.884;5.188;2022-07-29T00:08:08;17.00;99.90
18729;DHT22;9493;51.884;5.188;2022-07-29T00:10:35;17.00;99.90
18729;DHT22;9493;51.884;5.188;2022-07-29T00:13:02;16.90;99.90
18729;DHT22;9493;51.884;5.188;2022-07-29T00:15:30;16.90;99.90
18729;DHT22;9493;51.884;5.188;2022-07-29T00:17:57;16.80;99.90
18729;DHT22;9493;51.884;5.188;2022-07-29T00:20:24;17.00;99.90
18729;DHT22;9493;51.884;5.188;2022-07-29T00:22:51;16.80;99.90
18729;DHT22;9493;51.884;5.188;2022-07-29T00:25:18;16.90;99.90
18729;DHT22;9493;51.884;5.188;2022-07-29T00:27:45;16.80;99.90
18729;DHT22;9493;51.884;5.188;2022-07-29T00:30:12;16.80;99.90
18729;DHT22;9493;51.884;5.188;2022-07-29T00:32:41;16.80;99.90
18729;DHT22;9493;51.884;5.188;2022-07-29T00:35:08;16.80;99.90
18729;DHT22;9493;51.884;5.188;2022-07-29T00:37:58;16.80;99.90
18729;DHT22;9493;51.884;5.188;2022-07-29T00:40:25;16.80;99.90
18729;DHT22;9493;51.884;5.188;2022-07-29T00:42:52;16.80;99.90
18729;DHT22;9493;51.884;5.188;2022-07-29T00:45:19;16.80;99.90
18729;DHT22;9493;51.884;5.188;2022-07-29T00:47:48;16.80;99.90
18729;DHT22;9493;51.884;5.188;2022-07-29T00:50:16;16.70;99.90
18729;DHT22;9493;51.884;5.188;2022-07-29T00:52:42;16.70;99.90
18729;DHT22;9493;51.884;5.188;2022-07-29T00:55:11;16.70;99.90
18729;DHT22;9493;51.884;5.188;2022-07-29T00:57:40;16.60;99.90
18729;DHT22;9493;51.884;5.188;2022-07-29T01:00:09;16.60;99.90
18729;DHT22;9493;51.884;5.188;2022-07-29T01:02:36;16.50;99.90
18729;DHT22;9493;51.884;5.188;2022-07-29T01:05:06;16.60;99.90
18729;DHT22;9493;51.884;5.188;2022-07-29T01:07:34;16.60;99.90
18729;DHT22;9493;51.884;5.188;2022-07-29T01:10:02;16.60;99.90
18729;DHT22;9493;51.884;5.188;2022-07-29T01:12:30;16.60;99.90
18729;DHT22;9493;51.884;5.188;2022-07-29T01:14:59;16.60;99.90
18729;DHT22;9493;51.884;5.188;2022-07-29T01:17:32;16.60;99.90
18729;DHT22;9493;51.884;5.188;2022-07-29T01:20:05;16.60;99.90
18729;DHT22;9493;51.884;5.188;2022-07-29T01:22:56;16.60;99.90
18729;DHT22;9493;51.884;5.188;2022-07-29T01:28:55;16.60;99.90
18729;DHT22;9493;51.884;5.188;2022-07-29T01:31:31;16.50;99.90
18729;DHT22;9493;51.884;5.188;2022-07-29T01:34:04;16.50;99.90
18729;DHT22;9493;51.884;5.188;2022-07-29T01:36:35;16.50;99.90
18729;DHT22;9493;51.884;5.188;2022-07-29T01:39:10;16.50;99.90
18729;DHT22;9493;51.884;5.188;2022-07-29T01:41:40;16.40;99.90
18729;DHT22;9493;51.884;5.188;2022-07-29T01:44:14;16.40;99.90
18729;DHT22;9493;51.884;5.188;2022-07-29T01:46:48;16.40;99.90
18729;DHT22;9493;51.884;5.188;2022-07-29T01:49:20;16.40;99.90
18729;DHT22;9493;51.884;5.188;2022-07-29T01:51:51;16.40;99.90
18729;DHT22;9493;51.884;5.188;2022-07-29T01:54:21;16.40;99.90
18729;DHT22;9493;51.884;5.188;2022-07-29T01:56:51;16.40;99.90
18729;DHT22;9493;51.884;5.188;2022-07-29T01:59:20;16.40;99.90
18729;DHT22;9493;51.884;5.188;2022-07-29T02:01:50;16.30;99.90
18729;DHT22;9493;51.884;5.188;2022-07-29T02:04:19;16.40;99.90
18729;DHT22;9493;51.884;5.188;2022-07-29T02:06:48;16.40;99.90
18729;DHT22;9493;51.884;5.188;2022-07-29T02:09:16;16.30;99.90
18729;DHT22;9493;51.884;5.188;2022-07-29T02:11:48;16.30;99.90
18729;DHT22;9493;51.884;5.188;2022-07-29T02:14:20;16.30;99.90
18729;DHT22;9493;51.884;5.188;2022-07-29T02:16:50;16.20;99.90
18729;DHT22;9493;51.884;5.188;2022-07-29T02:19:19;16.20;99.90
18729;DHT22;9493;51.884;5.188;2022-07-29T02:21:48;16.20;99.90
18729;DHT22;9493;51.884;5.188;2022-07-29T02:24:17;16.20;99.90
18729;DHT22;9493;51.884;5.188;2022-07-29T02:26:45;16.20;99.90
18729;DHT22;9493;51.884;5.188;2022-07-29T02:29:12;16.10;99.90
18729;DHT22;9493;51.884;5.188;2022-07-29T02:31:44;16.10;99.90
18729;DHT22;9493;51.884;5.188;2022-07-29T02:34:13;16.10;99.90
18729;DHT22;9493;51.884;5.188;2022-07-29T02:36:41;16.10;99.90
18729;DHT22;9493;51.884;5.188;2022-07-29T02:39:10;16.00;99.90
18729;DHT22;9493;51.884;5.188;2022-07-29T02:41:42;16.00;99.90
18729;DHT22;9493;51.884;5.188;2022-07-29T02:44:12;16.00;99.90
18729;DHT22;9493;51.884;5.188;2022-07-29T02:46:49;16.10;99.90
18729;DHT22;9493;51.884;5.188;2022-07-29T02:49:20;16.00;99.90
18729;DHT22;9493;51.884;5.188;2022-07-29T02:51:54;16.00;99.90
18729;DHT22;9493;51.884;5.188;2022-07-29T02:54:26;16.00;99.90
18729;DHT22;9493;51.884;5.188;2022-07-29T02:56:57;16.00;99.90
18729;DHT22;9493;51.884;5.188;2022-07-29T02:59:27;16.00;99.90
18729;DHT22;9493;51.884;5.188;2022-07-29T03:01:59;15.90;99.90
18729;DHT22;9493;51.884;5.188;2022-07-29T03:04:27;15.90;99.90
18729;DHT22;9493;51.884;5.188;2022-07-29T03:06:58;15.90;99.90
18729;DHT22;9493;51.884;5.188;2022-07-29T03:09:26;15.90;99.90
18729;DHT22;9493;51.884;5.188;2022-07-29T03:11:55;15.90;99.90
18729;DHT22;9493;51.884;5.188;2022-07-29T03:14:23;15.90;99.90
18729;DHT22;9493;51.884;5.188;2022-07-29T03:16:50;15.80;99.90
18729;DHT22;9493;51.884;5.188;2022-07-29T03:19:19;15.80;99.90
18729;DHT22;9493;51.884;5.188;2022-07-29T03:21:47;15.70;99.90
18729;DHT22;9493;51.884;5.188;2022-07-29T03:24:28;15.70;99.90
18729;DHT22;9493;51.884;5.188;2022-07-29T03:26:55;15.80;99.90
18729;DHT22;9493;51.884;5.188;2022-07-29T03:29:23;15.70;99.90
18729;DHT22;9493;51.884;5.188;2022-07-29T03:31:50;15.80;99.90
18729;DHT22;9493;51.884;5.188;2022-07-29T03:34:18;15.80;99.90
18729;DHT22;9493;51.884;5.188;2022-07-29T03:36:46;15.80;99.90
18729;DHT22;9493;51.884;5.188;2022-07-29T03:39:15;15.70;99.90
18729;DHT22;9493;51.884;5.188;2022-07-29T03:41:44;15.70;99.90
18729;DHT22;9493;51.884;5.188;2022-07-29T03:44:11;15.70;99.90
18729;DHT22;9493;51.884;5.188;2022-07-29T03:46:39;15.70;99.90
18729;DHT22;9493;51.884;5.188;2022-07-29T03:49:06;15.70;99.90
18729;DHT22;9493;51.884;5.188;2022-07-29T03:51:36;15.70;99.90
18729;DHT22;9493;51.884;5.188;2022-07-29T03:54:03;15.70;99.90
18729;DHT22;9493;51.884;5.188;2022-07-29T03:56:32;15.70;99.90
18729;DHT22;9493;51.884;5.188;2022-07-29T03:59:02;15.60;99.90
18729;DHT22;9493;51.884;5.188;2022-07-29T04:01:29;15.70;99.90
18729;DHT22;9493;51.884;5.188;2022-07-29T04:03:56;15.70;99.90
18729;DHT22;9493;51.884;5.188;2022-07-29T04:06:23;15.60;99.90
18729;DHT22;9493;51.884;5.188;2022-07-29T04:08:52;15.60;99.90
18729;DHT22;9493;51.884;5.188;2022-07-29T04:11:19;15.60;99.90
18729;DHT22;9493;51.884;5.188;2022-07-29T04:13:46;15.60;99.90
18729;DHT22;9493;51.884;5.188;2022-07-29T04:16:13;15.60;99.90
18729;DHT22;9493;51.884;5.188;2022-07-29T04:18:39;15.60;99.90
18729;DHT22;9493;51.884;5.188;2022-07-29T04:21:06;15.50;99.90
18729;DHT22;9493;51.884;5.188;2022-07-29T04:23:33;15.60;99.90
18729;DHT22;9493;51.884;5.188;2022-07-29T04:26:01;15.50;99.90
18729;DHT22;9493;51.884;5.188;2022-07-29T04:28:28;15.50;99.90
18729;DHT22;9493;51.884;5.188;2022-07-29T04:30:55;15.60;99.90
18729;DHT22;9493;51.884;5.188;2022-07-29T04:33:22;15.70;99.90
18729;DHT22;9493;51.884;5.188;2022-07-29T04:35:48;15.60;99.90
18729;DHT22;9493;51.884;5.188;2022-07-29T04:38:15;15.60;99.90
18729;DHT22;9493;51.884;5.188;2022-07-29T04:40:42;15.70;99.90
18729;DHT22;9493;51.884;5.188;2022-07-29T04:43:10;15.60;99.90
18729;DHT22;9493;51.884;5.188;2022-07-29T04:45:37;15.60;99.90
18729;DHT22;9493;51.884;5.188;2022-07-29T04:48:04;15.60;99.90
18729;DHT22;9493;51.884;5.188;2022-07-29T04:50:32;15.60;99.90
18729;DHT22;9493;51.884;5.188;2022-07-29T04:52:59;15.60;99.90
18729;DHT22;9493;51.884;5.188;2022-07-29T04:55:26;15.80;99.90
18729;DHT22;9493;51.884;5.188;2022-07-29T04:57:53;15.70;99.90
18729;DHT22;9493;51.884;5.188;2022-07-29T05:00:21;15.70;99.90
18729;DHT22;9493;51.884;5.188;2022-07-29T05:02:48;15.70;99.90
18729;DHT22;9493;51.884;5.188;2022-07-29T05:05:15;15.70;99.90
18729;DHT22;9493;51.884;5.188;2022-07-29T05:07:42;15.70;99.90
18729;DHT22;9493;51.884;5.188;2022-07-29T05:10:09;15.80;99.90
18729;DHT22;9493;51.884;5.188;2022-07-29T05:12:37;15.80;99.90
18729;DHT22;9493;51.884;5.188;2022-07-29T05:15:05;16.30;99.90
18729;DHT22;9493;51.884;5.188;2022-07-29T05:17:33;16.00;99.90
18729;DHT22;9493;51.884;5.188;2022-07-29T05:20:00;16.10;99.90
18729;DHT22;9493;51.884;5.188;2022-07-29T05:22:27;16.20;99.90
18729;DHT22;9493;51.884;5.188;2022-07-29T05:24:54;16.20;99.90
18729;DHT22;9493;51.884;5.188;2022-07-29T05:27:21;16.30;99.90
18729;DHT22;9493;51.884;5.188;2022-07-29T05:29:48;16.80;99.90
18729;DHT22;9493;51.884;5.188;2022-07-29T05:32:15;16.40;99.90
18729;DHT22;9493;51.884;5.188;2022-07-29T05:34:43;16.50;99.90
18729;DHT22;9493;51.884;5.188;2022-07-29T05:37:10;16.50;99.90
18729;DHT22;9493;51.884;5.188;2022-07-29T05:39:38;16.50;99.90
18729;DHT22;9493;51.884;5.188;2022-07-29T05:42:08;16.50;99.90
18729;DHT22;9493;51.884;5.188;2022-07-29T05:44:36;16.50;99.90
18729;DHT22;9493;51.884;5.188;2022-07-29T05:47:03;16.60;99.90
18729;DHT22;9493;51.884;5.188;2022-07-29T05:49:30;16.50;99.90
18729;DHT22;9493;51.884;5.188;2022-07-29T05:51:59;16.60;99.90
18729;DHT22;9493;51.884;5.188;2022-07-29T05:54:26;16.70;99.90
18729;DHT22;9493;51.884;5.188;2022-07-29T05:56:53;16.70;99.90
18729;DHT22;9493;51.884;5.188;2022-07-29T05:59:19;16.70;99.90
18729;DHT22;9493;51.884;5.188;2022-07-29T06:01:46;16.70;99.90
18729;DHT22;9493;51.884;5.188;2022-07-29T06:04:13;16.60;99.90
18729;DHT22;9493;51.884;5.188;2022-07-29T06:06:40;16.60;99.90
18729;DHT22;9493;51.884;5.188;2022-07-29T06:09:08;16.50;99.90
18729;DHT22;9493;51.884;5.188;2022-07-29T06:11:35;16.50;99.90
18729;DHT22;9493;51.884;5.188;2022-07-29T06:14:02;16.40;99.90
18729;DHT22;9493;51.884;5.188;2022-07-29T06:16:29;16.40;99.90
18729;DHT22;9493;51.884;5.188;2022-07-29T06:18:56;16.60;99.90
18729;DHT22;9493;51.884;5.188;2022-07-29T06:21:23;16.70;99.90
18729;DHT22;9493;51.884;5.188;2022-07-29T06:23:49;16.80;99.90
18729;DHT22;9493;51.884;5.188;2022-07-29T06:26:18;16.90;99.90
18729;DHT22;9493;51.884;5.188;2022-07-29T06:28:45;16.80;99.90
18729;DHT22;9493;51.884;5.188;2022-07-29T06:31:11;17.10;99.90
18729;DHT22;9493;51.884;5.188;2022-07-29T06:33:38;17.10;99.90
18729;DHT22;9493;51.884;5.188;2022-07-29T06:36:05;17.10;99.90
18729;DHT22;9493;51.884;5.188;2022-07-29T06:38:33;17.00;99.90
18729;DHT22;9493;51.884;5.188;2022-07-29T06:41:00;17.00;99.90
18729;DHT22;9493;51.884;5.188;2022-07-29T06:43:30;16.90;99.90
18729;DHT22;9493;51.884;5.188;2022-07-29T06:46:00;16.90;99.90
18729;DHT22;9493;51.884;5.188;2022-07-29T06:48:27;16.90;99.90
18729;DHT22;9493;51.884;5.188;2022-07-29T06:50:54;16.90;99.90
18729;DHT22;9493;51.884;5.188;2022-07-29T06:53:21;17.30;99.90
18729;DHT22;9493;51.884;5.188;2022-07-29T06:55:48;17.70;99.90
18729;DHT22;9493;51.884;5.188;2022-07-29T06:58:15;17.90;99.90
18729;DHT22;9493;51.884;5.188;2022-07-29T07:00:45;18.20;99.90
18729;DHT22;9493;51.884;5.188;2022-07-29T07:03:11;18.60;99.90
18729;DHT22;9493;51.884;5.188;2022-07-29T07:05:38;18.80;99.90
18729;DHT22;9493;51.884;5.188;2022-07-29T07:08:05;19.20;99.90
18729;DHT22;9493;51.884;5.188;2022-07-29T07:10:33;19.00;99.90
18729;DHT22;9493;51.884;5.188;2022-07-29T07:13:00;18.90;99.90
18729;DHT22;9493;51.884;5.188;2022-07-29T07:15:27;18.90;99.90
18729;DHT22;9493;51.884;5.188;2022-07-29T07:17:55;19.00;99.90
18729;DHT22;9493;51.884;5.188;2022-07-29T07:20:22;18.90;99.90
18729;DHT22;9493;51.884;5.188;2022-07-29T07:22:49;19.10;99.90
18729;DHT22;9493;51.884;5.188;2022-07-29T07:25:16;19.10;99.90
18729;DHT22;9493;51.884;5.188;2022-07-29T07:27:43;19.20;99.90
18729;DHT22;9493;51.884;5.188;2022-07-29T07:30:11;19.40;99.90
18729;DHT22;9493;51.884;5.188;2022-07-29T07:32:38;19.50;99.90
18729;DHT22;9493;51.884;5.188;2022-07-29T07:35:08;19.50;99.90
18729;DHT22;9493;51.884;5.188;2022-07-29T07:37:35;19.60;99.90
18729;DHT22;9493;51.884;5.188;2022-07-29T07:40:03;19.60;99.90
18729;DHT22;9493;51.884;5.188;2022-07-29T07:42:30;19.60;99.90
18729;DHT22;9493;51.884;5.188;2022-07-29T07:44:57;19.50;99.90
18729;DHT22;9493;51.884;5.188;2022-07-29T07:47:24;19.50;99.90
18729;DHT22;9493;51.884;5.188;2022-07-29T07:49:51;19.60;99.90
18729;DHT22;9493;51.884;5.188;2022-07-29T07:52:20;19.70;99.90
18729;DHT22;9493;51.884;5.188;2022-07-29T07:54:48;19.70;99.90
18729;DHT22;9493;51.884;5.188;2022-07-29T07:57:15;19.70;99.90
18729;DHT22;9493;51.884;5.188;2022-07-29T07:59:42;19.60;99.90
18729;DHT22;9493;51.884;5.188;2022-07-29T08:02:09;19.60;99.90
18729;DHT22;9493;51.884;5.188;2022-07-29T08:04:36;19.70;99.90
18729;DHT22;9493;51.884;5.188;2022-07-29T08:07:06;19.60;99.90
18729;DHT22;9493;51.884;5.188;2022-07-29T08:09:35;19.40;99.90
18729;DHT22;9493;51.884;5.188;2022-07-29T08:12:03;19.50;99.90
18729;DHT22;9493;51.884;5.188;2022-07-29T08:14:31;19.80;99.90
18729;DHT22;9493;51.884;5.188;2022-07-29T08:16:59;20.40;99.90
18729;DHT22;9493;51.884;5.188;2022-07-29T08:19:26;20.40;99.90
18729;DHT22;9493;51.884;5.188;2022-07-29T08:21:53;20.80;99.90
18729;DHT22;9493;51.884;5.188;2022-07-29T08:24:20;21.30;99.90
18729;DHT22;9493;51.884;5.188;2022-07-29T08:27:06;21.40;99.90
18729;DHT22;9493;51.884;5.188;2022-07-29T08:29:33;21.90;99.90
18729;DHT22;9493;51.884;5.188;2022-07-29T08:32:00;22.10;99.90
18729;DHT22;9493;51.884;5.188;2022-07-29T08:34:27;22.00;99.90
18729;DHT22;9493;51.884;5.188;2022-07-29T08:36:54;22.30;99.90
18729;DHT22;9493;51.884;5.188;2022-07-29T08:39:21;22.40;99.90
18729;DHT22;9493;51.884;5.188;2022-07-29T08:41:48;22.90;99.90
18729;DHT22;9493;51.884;5.188;2022-07-29T08:44:17;23.00;99.90
18729;DHT22;9493;51.884;5.188;2022-07-29T08:46:44;22.90;99.90
18729;DHT22;9493;51.884;5.188;2022-07-29T08:49:11;23.00;99.90
18729;DHT22;9493;51.884;5.188;2022-07-29T08:51:40;23.20;99.90
18729;DHT22;9493;51.884;5.188;2022-07-29T08:54:08;23.00;99.90
18729;DHT22;9493;51.884;5.188;2022-07-29T08:56:36;23.30;99.90
18729;DHT22;9493;51.884;5.188;2022-07-29T08:59:05;23.30;99.90
18729;DHT22;9493;51.884;5.188;2022-07-29T09:01:37;23.50;99.90
18729;DHT22;9493;51.884;5.188;2022-07-29T09:04:07;23.50;99.90
18729;DHT22;9493;51.884;5.188;2022-07-29T09:06:39;24.00;99.90
18729;DHT22;9493;51.884;5.188;2022-07-29T09:09:08;24.30;99.90
18729;DHT22;9493;51.884;5.188;2022-07-29T09:11:35;24.10;99.90
18729;DHT22;9493;51.884;5.188;2022-07-29T09:14:02;24.60;99.90
18729;DHT22;9493;51.884;5.188;2022-07-29T09:19:23;24.60;99.90
18729;DHT22;9493;51.884;5.188;2022-07-29T09:21:51;25.20;99.90
18729;DHT22;9493;51.884;5.188;2022-07-29T09:24:36;24.90;99.90
18729;DHT22;9493;51.884;5.188;2022-07-29T09:27:10;25.40;99.90
18729;DHT22;9493;51.884;5.188;2022-07-29T09:29:37;25.50;99.90
18729;DHT22;9493;51.884;5.188;2022-07-29T09:32:08;25.50;99.90
18729;DHT22;9493;51.884;5.188;2022-07-29T09:34:37;25.80;99.90
18729;DHT22;9493;51.884;5.188;2022-07-29T09:37:04;25.60;99.90
18729;DHT22;9493;51.884;5.188;2022-07-29T09:39:34;25.70;99.90
18729;DHT22;9493;51.884;5.188;2022-07-29T09:42:04;26.10;99.90
18729;DHT22;9493;51.884;5.188;2022-07-29T09:44:41;26.40;99.90
18729;DHT22;9493;51.884;5.188;2022-07-29T09:47:08;26.70;99.90
18729;DHT22;9493;51.884;5.188;2022-07-29T09:49:51;26.90;99.90
18729;DHT22;9493;51.884;5.188;2022-07-29T09:52:19;27.00;99.90
18729;DHT22;9493;51.884;5.188;2022-07-29T09:54:46;26.90;99.90
18729;DHT22;9493;51.884;5.188;2022-07-29T09:57:26;26.70;99.90
18729;DHT22;9493;51.884;5.188;2022-07-29T09:59:58;27.40;99.90
18729;DHT22;9493;51.884;5.188;2022-07-29T10:02:30;27.60;99.90
18729;DHT22;9493;51.884;5.188;2022-07-29T10:04:59;27.50;99.90
18729;DHT22;9493;51.884;5.188;2022-07-29T10:07:26;27.20;99.90
18729;DHT22;9493;51.884;5.188;2022-07-29T10:10:08;27.00;99.90
18729;DHT22;9493;51.884;5.188;2022-07-29T10:12:48;27.40;99.90
18729;DHT22;9493;51.884;5.188;2022-07-29T10:15:16;27.70;99.90
18729;DHT22;9493;51.884;5.188;2022-07-29T10:17:42;28.20;99.90
18729;DHT22;9493;51.884;5.188;2022-07-29T10:20:11;27.90;99.90
18729;DHT22;9493;51.884;5.188;2022-07-29T10:22:39;27.80;99.90
18729;DHT22;9493;51.884;5.188;2022-07-29T10:25:07;27.90;99.90
18729;DHT22;9493;51.884;5.188;2022-07-29T10:27:35;28.10;99.90
18729;DHT22;9493;51.884;5.188;2022-07-29T10:30:03;28.40;99.90
18729;DHT22;9493;51.884;5.188;2022-07-29T10:32:38;28.20;99.90
18729;DHT22;9493;51.884;5.188;2022-07-29T10:35:26;28.00;99.90
18729;DHT22;9493;51.884;5.188;2022-07-29T10:38:10;27.60;99.90
18729;DHT22;9493;51.884;5.188;2022-07-29T10:40:49;27.30;99.90
18729;DHT22;9493;51.884;5.188;2022-07-29T10:43:37;28.50;99.90
18729;DHT22;9493;51.884;5.188;2022-07-29T10:46:07;28.80;99.90
18729;DHT22;9493;51.884;5.188;2022-07-29T10:48:35;29.40;99.80
18729;DHT22;9493;51.884;5.188;2022-07-29T10:51:05;29.50;99.80
18729;DHT22;9493;51.884;5.188;2022-07-29T10:53:47;29.50;99.70
18729;DHT22;9493;51.884;5.188;2022-07-29T10:56:25;29.20;99.70
18729;DHT22;9493;51.884;5.188;2022-07-29T10:59:23;29.60;99.60
18729;DHT22;9493;51.884;5.188;2022-07-29T11:01:54;29.70;99.60
18729;DHT22;9493;51.884;5.188;2022-07-29T11:07:30;29.70;99.50
18729;DHT22;9493;51.884;5.188;2022-07-29T11:10:24;29.70;99.30
18729;DHT22;9493;51.884;5.188;2022-07-29T11:12:51;30.00;98.90
18729;DHT22;9493;51.884;5.188;2022-07-29T11:15:20;30.00;98.60
18729;DHT22;9493;51.884;5.188;2022-07-29T11:18:07;30.10;98.40
18729;DHT22;9493;51.884;5.188;2022-07-29T11:20:39;30.60;98.10
18729;DHT22;9493;51.884;5.188;2022-07-29T11:23:25;30.00;97.80
18729;DHT22;9493;51.884;5.188;2022-07-29T11:26:18;29.80;97.60
18729;DHT22;9493;51.884;5.188;2022-07-29T11:28:52;30.60;97.40
18729;DHT22;9493;51.884;5.188;2022-07-29T11:31:32;31.00;97.00
18729;DHT22;9493;51.884;5.188;2022-07-29T11:34:21;29.80;96.70
18729;DHT22;9493;51.884;5.188;2022-07-29T11:37:22;29.90;96.40
18729;DHT22;9493;51.884;5.188;2022-07-29T11:40:12;30.10;96.40
18729;DHT22;9493;51.884;5.188;2022-07-29T11:42:42;30.70;96.20
18729;DHT22;9493;51.884;5.188;2022-07-29T11:45:10;30.80;96.00
18729;DHT22;9493;51.884;5.188;2022-07-29T11:47:40;30.40;96.00
18729;DHT22;9493;51.884;5.188;2022-07-29T11:50:09;30.60;95.90
18729;DHT22;9493;51.884;5.188;2022-07-29T11:52:37;30.50;95.80
18729;DHT22;9493;51.884;5.188;2022-07-29T11:55:11;30.40;95.50
18729;DHT22;9493;51.884;5.188;2022-07-29T11:57:46;31.00;95.40
18729;DHT22;9493;51.884;5.188;2022-07-29T12:00:24;31.00;95.30
18729;DHT22;9493;51.884;5.188;2022-07-29T12:02:52;30.70;95.20
18729;DHT22;9493;51.884;5.188;2022-07-29T12:05:20;30.70;95.20
18729;DHT22;9493;51.884;5.188;2022-07-29T12:07:48;30.30;95.30
18729;DHT22;9493;51.884;5.188;2022-07-29T12:10:16;30.10;95.40
18729;DHT22;9493;51.884;5.188;2022-07-29T12:12:51;29.90;95.40
18729;DHT22;9493;51.884;5.188;2022-07-29T12:15:19;29.80;95.50
18729;DHT22;9493;51.884;5.188;2022-07-29T12:17:47;30.10;95.40
18729;DHT22;9493;51.884;5.188;2022-07-29T12:20:22;30.90;95.10
18729;DHT22;9493;51.884;5.188;2022-07-29T12:22:49;30.90;94.90
18729;DHT22;9493;51.884;5.188;2022-07-29T12:25:17;31.10;94.80
18729;DHT22;9493;51.884;5.188;2022-07-29T12:27:44;31.60;94.60
18729;DHT22;9493;51.884;5.188;2022-07-29T12:30:13;31.50;94.20
18729;DHT22;9493;51.884;5.188;2022-07-29T12:32:47;31.40;93.90
18729;DHT22;9493;51.884;5.188;2022-07-29T12:35:19;31.10;93.60
18729;DHT22;9493;51.884;5.188;2022-07-29T12:37:47;30.80;93.40
18729;DHT22;9493;51.884;5.188;2022-07-29T12:40:20;30.60;93.20
18729;DHT22;9493;51.884;5.188;2022-07-29T12:43:06;30.50;93.00
18729;DHT22;9493;51.884;5.188;2022-07-29T12:45:34;31.10;92.90
18729;DHT22;9493;51.884;5.188;2022-07-29T12:48:01;31.00;92.80
18729;DHT22;9493;51.884;5.188;2022-07-29T12:50:28;31.00;92.50
18729;DHT22;9493;51.884;5.188;2022-07-29T12:53:08;31.00;92.30
18729;DHT22;9493;51.884;5.188;2022-07-29T12:55:41;31.30;91.90
18729;DHT22;9493;51.884;5.188;2022-07-29T12:58:08;31.00;91.50
18729;DHT22;9493;51.884;5.188;2022-07-29T13:00:38;31.10;91.30
18729;DHT22;9493;51.884;5.188;2022-07-29T13:03:15;31.10;90.90
18729;DHT22;9493;51.884;5.188;2022-07-29T13:05:43;31.50;91.00
18729;DHT22;9493;51.884;5.188;2022-07-29T13:08:14;31.10;91.00
18729;DHT22;9493;51.884;5.188;2022-07-29T13:10:42;31.10;91.10
18729;DHT22;9493;51.884;5.188;2022-07-29T13:13:13;31.00;91.20
18729;DHT22;9493;51.884;5.188;2022-07-29T13:15:41;31.00;91.10
18729;DHT22;9493;51.884;5.188;2022-07-29T13:18:27;30.80;90.90
18729;DHT22;9493;51.884;5.188;2022-07-29T13:20:54;30.70;90.60
18729;DHT22;9493;51.884;5.188;2022-07-29T13:23:21;30.60;90.40
18729;DHT22;9493;51.884;5.188;2022-07-29T13:25:49;31.10;90.30
18729;DHT22;9493;51.884;5.188;2022-07-29T13:28:16;31.30;89.90
18729;DHT22;9493;51.884;5.188;2022-07-29T13:30:43;31.20;89.10
18729;DHT22;9493;51.884;5.188;2022-07-29T13:33:10;31.00;89.00
18729;DHT22;9493;51.884;5.188;2022-07-29T13:35:37;30.80;88.80
18729;DHT22;9493;51.884;5.188;2022-07-29T13:38:04;31.20;88.60
18729;DHT22;9493;51.884;5.188;2022-07-29T13:40:31;31.70;88.60
18729;DHT22;9493;51.884;5.188;2022-07-29T13:43:02;31.80;88.30
18729;DHT22;9493;51.884;5.188;2022-07-29T13:45:28;32.00;88.60
18729;DHT22;9493;51.884;5.188;2022-07-29T13:47:55;31.40;88.70
18729;DHT22;9493;51.884;5.188;2022-07-29T13:50:22;30.90;89.00
18729;DHT22;9493;51.884;5.188;2022-07-29T13:52:49;30.80;89.50
18729;DHT22;9493;51.884;5.188;2022-07-29T13:55:16;31.00;90.00
18729;DHT22;9493;51.884;5.188;2022-07-29T13:57:43;30.70;90.40
18729;DHT22;9493;51.884;5.188;2022-07-29T14:00:14;30.70;90.40
18729;DHT22;9493;51.884;5.188;2022-07-29T14:02:45;30.50;90.10
18729;DHT22;9493;51.884;5.188;2022-07-29T14:05:12;29.80;90.20
18729;DHT22;9493;51.884;5.188;2022-07-29T14:07:39;29.10;90.10
18729;DHT22;9493;51.884;5.188;2022-07-29T14:10:06;29.60;90.20
18729;DHT22;9493;51.884;5.188;2022-07-29T14:12:33;30.00;90.20
18729;DHT22;9493;51.884;5.188;2022-07-29T14:15:00;30.40;89.90
18729;DHT22;9493;51.884;5.188;2022-07-29T14:17:29;30.50;90.00
18729;DHT22;9493;51.884;5.188;2022-07-29T14:19:55;31.00;89.90
18729;DHT22;9493;51.884;5.188;2022-07-29T14:22:22;30.40;89.90
18729;DHT22;9493;51.884;5.188;2022-07-29T14:24:50;29.60;89.80
18729;DHT22;9493;51.884;5.188;2022-07-29T14:27:23;29.90;89.80
18729;DHT22;9493;51.884;5.188;2022-07-29T14:29:50;29.60;90.20
18729;DHT22;9493;51.884;5.188;2022-07-29T14:32:17;29.70;90.60
18729;DHT22;9493;51.884;5.188;2022-07-29T14:34:45;29.80;90.90
18729;DHT22;9493;51.884;5.188;2022-07-29T14:37:12;30.10;91.10
18729;DHT22;9493;51.884;5.188;2022-07-29T14:39:40;30.00;91.30
18729;DHT22;9493;51.884;5.188;2022-07-29T14:42:07;30.20;91.50
18729;DHT22;9493;51.884;5.188;2022-07-29T14:44:34;29.20;91.80
18729;DHT22;9493;51.884;5.188;2022-07-29T14:47:01;29.20;92.10
18729;DHT22;9493;51.884;5.188;2022-07-29T14:49:28;29.60;92.30
18729;DHT22;9493;51.884;5.188;2022-07-29T14:51:56;29.50;92.50
18729;DHT22;9493;51.884;5.188;2022-07-29T14:54:23;29.20;92.60
18729;DHT22;9493;51.884;5.188;2022-07-29T14:56:50;29.30;92.50
18729;DHT22;9493;51.884;5.188;2022-07-29T14:59:20;29.70;92.60
18729;DHT22;9493;51.884;5.188;2022-07-29T15:01:47;29.70;92.40
18729;DHT22;9493;51.884;5.188;2022-07-29T15:04:25;29.40;92.00
18729;DHT22;9493;51.884;5.188;2022-07-29T15:06:52;28.80;91.80
18729;DHT22;9493;51.884;5.188;2022-07-29T15:09:22;29.00;91.80
18729;DHT22;9493;51.884;5.188;2022-07-29T15:11:49;28.90;91.60
18729;DHT22;9493;51.884;5.188;2022-07-29T15:14:16;28.70;91.40
18729;DHT22;9493;51.884;5.188;2022-07-29T15:16:43;29.30;91.40
18729;DHT22;9493;51.884;5.188;2022-07-29T15:19:10;29.60;91.40
18729;DHT22;9493;51.884;5.188;2022-07-29T15:21:37;29.30;91.30
18729;DHT22;9493;51.884;5.188;2022-07-29T15:24:04;29.20;91.00
18729;DHT22;9493;51.884;5.188;2022-07-29T15:26:33;29.30;90.90
18729;DHT22;9493;51.884;5.188;2022-07-29T15:29:00;29.00;90.60
18729;DHT22;9493;51.884;5.188;2022-07-29T15:31:27;28.50;90.30
18729;DHT22;9493;51.884;5.188;2022-07-29T15:33:54;28.40;90.20
18729;DHT22;9493;51.884;5.188;2022-07-29T15:36:21;28.70;90.40
18729;DHT22;9493;51.884;5.188;2022-07-29T15:38:47;28.20;90.50
18729;DHT22;9493;51.884;5.188;2022-07-29T15:41:15;27.60;90.80
18729;DHT22;9493;51.884;5.188;2022-07-29T15:43:44;28.00;91.10
18729;DHT22;9493;51.884;5.188;2022-07-29T15:46:13;28.10;91.50
18729;DHT22;9493;51.884;5.188;2022-07-29T15:48:57;28.10;91.80
18729;DHT22;9493;51.884;5.188;2022-07-29T15:51:24;28.50;92.10
18729;DHT22;9493;51.884;5.188;2022-07-29T15:53:52;28.50;92.40
18729;DHT22;9493;51.884;5.188;2022-07-29T15:56:20;28.90;92.60
18729;DHT22;9493;51.884;5.188;2022-07-29T15:58:50;28.80;92.50
18729;DHT22;9493;51.884;5.188;2022-07-29T16:01:18;29.00;92.50
18729;DHT22;9493;51.884;5.188;2022-07-29T16:03:45;28.90;92.40
18729;DHT22;9493;51.884;5.188;2022-07-29T16:06:12;28.40;92.40
18729;DHT22;9493;51.884;5.188;2022-07-29T16:08:39;28.00;92.40